Buffalo Creek, Colorado
Current Conditions -  °F | °C
As of 1:53 PM on Sunday 21 Dec 2014 (Local Time) from KAPA Reporting Station
Broken Clouds Broken Clouds  
Wind Chill: 42°   Ceiling: 11000
Heat Index: 47°   Visibility: 10mi
Dew Point: 24°   Wind: 10mph
Humidity: 41%   Direction: 220°SW
Pressure: 29.57"   Gusts: NA
Location:  39.39°N, 105.27°W
Report Text: KAPA 212053Z 22009KT 10SM FEW050 SCT090 BKN110 BKN220 08/M04 A2957 RMK AO2 SLP011 SHSN OMTNS DSNT W-NW T00831044 56019
Loading
Personal Weather Stations






























Interactive Weather Map New forecast layout! Learn more

10-Day Weather Forecast

Advertisements
Track Severe Weather on mobile